createdAt,value
2023-11-17T00:00:03.350Z,16.70
2023-11-17T00:00:24.430Z,15.90
2023-11-17T00:00:45.505Z,16.90
2023-11-17T00:01:06.591Z,16.50
2023-11-17T00:01:27.629Z,16.20
2023-11-17T00:01:48.734Z,17.20
2023-11-17T00:02:09.844Z,17.20
2023-11-17T00:02:30.890Z,16.40
2023-11-17T00:02:52.048Z,16.10
2023-11-17T00:03:13.243Z,18.20
2023-11-17T00:03:34.437Z,18.20
2023-11-17T00:03:55.668Z,17.40
2023-11-17T00:04:16.945Z,15.10
2023-11-17T00:04:38.140Z,16.30
2023-11-17T00:04:59.271Z,17.20
2023-11-17T00:05:20.319Z,15.30
2023-11-17T00:05:41.365Z,15.70
2023-11-17T00:06:02.520Z,17.50
2023-11-17T00:06:23.568Z,16.40
2023-11-17T00:06:44.668Z,14.20
2023-11-17T00:07:05.721Z,15.20
2023-11-17T00:07:26.757Z,16.00
2023-11-17T00:07:47.846Z,14.80
2023-11-17T00:08:08.896Z,16.10
2023-11-17T00:08:30.075Z,16.60
2023-11-17T00:08:51.204Z,14.90
2023-11-17T00:09:12.267Z,17.20
2023-11-17T00:09:33.303Z,16.40
2023-11-17T00:09:54.396Z,15.80
2023-11-17T00:10:15.546Z,16.60
2023-11-17T00:10:36.617Z,15.80
2023-11-17T00:10:57.679Z,14.70
2023-11-17T00:11:18.724Z,16.90
2023-11-17T00:11:39.775Z,16.90
2023-11-17T00:12:00.837Z,13.30
2023-11-17T00:12:21.904Z,13.10
2023-11-17T00:12:43.159Z,14.10
2023-11-17T00:13:04.296Z,14.40
2023-11-17T00:13:25.416Z,14.50
2023-11-17T00:13:46.456Z,13.50
2023-11-17T00:14:07.536Z,14.60
2023-11-17T00:14:28.598Z,14.30
2023-11-17T00:14:49.683Z,15.00
2023-11-17T00:15:10.772Z,15.10
2023-11-17T00:15:31.811Z,15.50
2023-11-17T00:15:52.993Z,15.90
2023-11-17T00:16:14.128Z,15.20
2023-11-17T00:16:35.309Z,14.20
2023-11-17T00:16:56.427Z,13.80
2023-11-17T00:17:17.464Z,13.90
2023-11-17T00:17:38.544Z,13.70
2023-11-17T00:17:59.651Z,13.00
2023-11-17T00:18:20.734Z,14.80
2023-11-17T00:18:41.808Z,13.50
2023-11-17T00:19:02.936Z,13.80
2023-11-17T00:19:23.998Z,13.90
2023-11-17T00:19:45.027Z,13.70
2023-11-17T00:20:06.091Z,15.30
2023-11-17T00:20:27.145Z,13.80
2023-11-17T00:20:48.202Z,13.30
2023-11-17T00:21:09.284Z,15.50
2023-11-17T00:21:30.318Z,13.70
2023-11-17T00:21:51.418Z,13.80
2023-11-17T00:22:12.500Z,15.10
2023-11-17T00:22:33.554Z,15.10
2023-11-17T00:22:54.605Z,14.40
2023-11-17T00:23:15.662Z,13.00
2023-11-17T00:23:36.745Z,13.90
2023-11-17T00:23:57.806Z,13.80
2023-11-17T00:24:18.889Z,14.90
2023-11-17T00:24:39.916Z,15.30
2023-11-17T00:25:01.062Z,13.70
2023-11-17T00:25:22.177Z,13.80
2023-11-17T00:25:43.226Z,12.50
2023-11-17T00:26:04.312Z,13.30
2023-11-17T00:26:25.369Z,14.30
2023-11-17T00:26:46.431Z,12.60
2023-11-17T00:27:07.489Z,13.30
2023-11-17T00:27:28.555Z,14.20
2023-11-17T00:27:49.641Z,14.40
2023-11-17T00:28:10.697Z,14.00
2023-11-17T00:28:31.750Z,12.10
2023-11-17T00:28:52.812Z,11.80
2023-11-17T00:29:13.870Z,12.10
2023-11-17T00:29:34.941Z,13.30
2023-11-17T00:29:56.007Z,13.60
2023-11-17T00:30:17.079Z,14.20
2023-11-17T00:30:38.140Z,13.00
2023-11-17T00:30:59.243Z,11.20
2023-11-17T00:31:20.332Z,12.80
2023-11-17T00:31:41.351Z,13.70
2023-11-17T00:32:02.470Z,14.10
2023-11-17T00:32:23.511Z,13.80
2023-11-17T00:32:44.581Z,14.10
2023-11-17T00:33:05.710Z,12.90
2023-11-17T00:33:26.760Z,14.20
2023-11-17T00:33:47.910Z,14.20
2023-11-17T00:34:09.012Z,13.50
2023-11-17T00:34:30.101Z,13.00
2023-11-17T00:34:51.297Z,13.90
2023-11-17T00:35:12.420Z,14.30
2023-11-17T00:35:33.459Z,14.40
2023-11-17T00:35:54.518Z,13.70
2023-11-17T00:36:15.589Z,15.60
2023-11-17T00:36:36.654Z,12.80
2023-11-17T00:36:57.736Z,11.70
2023-11-17T00:37:18.790Z,15.40
2023-11-17T00:37:39.888Z,14.80
2023-11-17T00:38:00.932Z,16.00
2023-11-17T00:38:21.988Z,13.90
2023-11-17T00:38:43.071Z,11.60
2023-11-17T00:39:04.135Z,12.70
2023-11-17T00:39:25.240Z,13.40
2023-11-17T00:39:46.301Z,14.00
2023-11-17T00:40:07.377Z,15.40
2023-11-17T00:40:28.462Z,13.30
2023-11-17T00:40:49.516Z,11.60
2023-11-17T00:41:17.690Z,11.10
2023-11-17T00:41:37.567Z,11.80
2023-11-17T00:41:58.609Z,12.20
2023-11-17T00:42:19.683Z,13.10
2023-11-17T00:42:40.752Z,15.00
2023-11-17T00:43:01.858Z,13.70
2023-11-17T00:43:22.940Z,14.90
2023-11-17T00:43:43.965Z,13.00
2023-11-17T00:44:05.043Z,12.40
2023-11-17T00:44:26.119Z,12.60
2023-11-17T00:44:47.178Z,13.30
2023-11-17T00:45:08.231Z,12.20
2023-11-17T00:45:29.340Z,12.00
2023-11-17T00:45:50.497Z,11.30
2023-11-17T00:46:11.734Z,11.90
2023-11-17T00:46:32.880Z,12.50
2023-11-17T00:46:54.063Z,11.80
2023-11-17T00:47:15.229Z,12.40
2023-11-17T00:47:36.326Z,12.70
2023-11-17T00:47:57.431Z,13.20
2023-11-17T00:48:18.475Z,14.50
2023-11-17T00:48:39.512Z,12.80
2023-11-17T00:49:00.579Z,10.80
2023-11-17T00:49:21.684Z,11.20
2023-11-17T00:49:42.744Z,11.20
2023-11-17T00:50:03.793Z,11.60
2023-11-17T00:50:24.882Z,12.50
2023-11-17T00:50:45.935Z,11.90
2023-11-17T00:51:06.994Z,13.10
2023-11-17T00:51:28.039Z,13.00
2023-11-17T00:51:49.120Z,11.90
2023-11-17T00:52:10.494Z,13.30
2023-11-17T00:52:31.515Z,11.80
2023-11-17T00:52:52.576Z,12.40
2023-11-17T00:53:13.634Z,11.60
2023-11-17T00:53:34.696Z,12.20
2023-11-17T00:53:55.761Z,10.30
2023-11-17T00:54:16.836Z,11.50
2023-11-17T00:54:37.938Z,12.10
2023-11-17T00:54:58.962Z,12.60
2023-11-17T00:55:20.064Z,12.30
2023-11-17T00:55:41.846Z,12.20
2023-11-17T00:56:02.899Z,12.30
2023-11-17T00:56:23.961Z,11.90
2023-11-17T00:56:45.040Z,14.30
2023-11-17T00:57:06.084Z,14.60
2023-11-17T00:57:27.126Z,12.50
2023-11-17T00:57:48.223Z,12.30
2023-11-17T00:58:09.304Z,12.40
2023-11-17T00:58:30.385Z,12.00
2023-11-17T00:58:51.427Z,13.00
2023-11-17T00:59:12.490Z,11.70
2023-11-17T00:59:33.528Z,12.50
2023-11-17T00:59:54.609Z,12.90
2023-11-17T01:00:15.641Z,13.10
2023-11-17T01:00:36.689Z,11.70
2023-11-17T01:00:58.058Z,11.50
2023-11-17T01:01:19.438Z,10.30
2023-11-17T01:01:40.595Z,12.30
2023-11-17T01:02:01.790Z,11.20
2023-11-17T01:02:22.872Z,11.40
2023-11-17T01:02:44.131Z,11.00
2023-11-17T01:03:05.341Z,11.30
2023-11-17T01:03:26.503Z,11.70
2023-11-17T01:03:47.742Z,11.50
2023-11-17T01:04:08.849Z,11.30
2023-11-17T01:04:29.937Z,11.80
2023-11-17T01:04:50.976Z,11.20
2023-11-17T01:05:12.054Z,11.60
2023-11-17T01:05:33.097Z,10.90
2023-11-17T01:05:54.160Z,11.30
2023-11-17T01:06:15.210Z,10.60
2023-11-17T01:06:36.264Z,9.70
2023-11-17T01:06:57.352Z,9.30
2023-11-17T01:07:18.539Z,11.70
2023-11-17T01:07:39.610Z,11.90
2023-11-17T01:08:00.660Z,12.20
2023-11-17T01:08:21.728Z,11.50
2023-11-17T01:08:42.793Z,10.60
2023-11-17T01:09:03.856Z,9.70
2023-11-17T01:09:24.923Z,9.20
2023-11-17T01:09:46.034Z,10.10
2023-11-17T01:10:07.109Z,10.80
2023-11-17T01:10:28.207Z,9.40
2023-11-17T01:10:49.242Z,9.70
2023-11-17T01:11:10.295Z,9.90
2023-11-17T01:11:31.377Z,9.80
2023-11-17T01:11:52.439Z,11.70
2023-11-17T01:12:13.489Z,11.20
2023-11-17T01:12:34.579Z,14.20
2023-11-17T01:12:55.683Z,13.00
2023-11-17T01:13:16.818Z,11.50
2023-11-17T01:13:37.977Z,10.40
2023-11-17T01:13:59.057Z,12.00
2023-11-17T01:14:20.091Z,11.30
2023-11-17T01:14:41.148Z,9.80
2023-11-17T01:15:02.204Z,10.50
2023-11-17T01:15:23.275Z,11.90
2023-11-17T01:15:44.363Z,13.10
2023-11-17T01:16:05.443Z,10.00
2023-11-17T01:16:26.507Z,9.70
2023-11-17T01:16:47.591Z,11.10
2023-11-17T01:17:08.705Z,10.40
2023-11-17T01:17:29.898Z,12.20
2023-11-17T01:17:51.015Z,11.50
2023-11-17T01:18:12.131Z,12.40
2023-11-17T01:18:33.159Z,13.50
2023-11-17T01:18:54.256Z,11.10
2023-11-17T01:19:15.352Z,10.20
2023-11-17T01:19:36.394Z,11.60
2023-11-17T01:19:57.444Z,11.80
2023-11-17T01:20:18.504Z,11.60
2023-11-17T01:20:39.569Z,12.90
2023-11-17T01:21:00.636Z,12.60
2023-11-17T01:21:21.702Z,12.20
2023-11-17T01:21:42.804Z,12.00
2023-11-17T01:22:03.903Z,11.90
2023-11-17T01:22:24.956Z,11.00
2023-11-17T01:22:45.987Z,11.40
2023-11-17T01:23:07.056Z,10.80
2023-11-17T01:23:28.138Z,11.30
2023-11-17T01:23:49.162Z,10.50
2023-11-17T01:24:10.223Z,11.40
2023-11-17T01:24:31.270Z,12.40
2023-11-17T01:24:52.382Z,11.40
2023-11-17T01:25:13.463Z,10.40
2023-11-17T01:25:34.481Z,10.80
2023-11-17T01:25:55.562Z,12.20
2023-11-17T01:26:16.619Z,12.30
2023-11-17T01:26:37.678Z,10.40
2023-11-17T01:26:58.733Z,9.90
2023-11-17T01:27:19.779Z,10.80
2023-11-17T01:27:40.909Z,11.40
2023-11-17T01:28:02.023Z,13.20
2023-11-17T01:28:23.109Z,11.60
2023-11-17T01:28:44.184Z,11.30
2023-11-17T01:29:05.235Z,10.80
2023-11-17T01:29:26.299Z,11.70
2023-11-17T01:29:47.374Z,11.50
2023-11-17T01:30:08.419Z,12.60
2023-11-17T01:30:29.474Z,12.30
2023-11-17T01:30:50.550Z,12.00
2023-11-17T01:31:11.625Z,12.70
2023-11-17T01:31:32.655Z,12.10
2023-11-17T01:31:53.719Z,11.60
2023-11-17T01:32:14.782Z,11.00
2023-11-17T01:32:35.850Z,11.60
2023-11-17T01:32:56.924Z,11.90
2023-11-17T01:33:17.948Z,12.10
2023-11-17T01:33:39.017Z,10.50
2023-11-17T01:34:00.119Z,11.60
2023-11-17T01:34:21.314Z,11.80
2023-11-17T01:34:42.434Z,12.10
2023-11-17T01:35:03.548Z,11.60
2023-11-17T01:35:24.574Z,11.30
2023-11-17T01:35:45.638Z,10.70
2023-11-17T01:36:06.710Z,9.90
2023-11-17T01:36:27.782Z,11.20
2023-11-17T01:36:48.886Z,10.30
2023-11-17T01:37:09.965Z,11.50
2023-11-17T01:37:31.004Z,11.60
2023-11-17T01:37:52.046Z,10.90
2023-11-17T01:38:13.092Z,11.00
2023-11-17T01:38:43.257Z,9.20
2023-11-17T01:39:01.138Z,11.00
2023-11-17T01:39:22.291Z,11.50
2023-11-17T01:39:43.394Z,10.70
2023-11-17T01:40:04.508Z,11.50
2023-11-17T01:40:25.647Z,11.20
2023-11-17T01:40:46.750Z,10.40
2023-11-17T01:41:07.833Z,10.30
2023-11-17T01:41:28.898Z,10.30
2023-11-17T01:41:49.971Z,10.70
2023-11-17T01:42:11.016Z,10.30
2023-11-17T01:42:32.091Z,10.30
2023-11-17T01:42:53.214Z,8.70
2023-11-17T01:43:14.351Z,9.10
2023-11-17T01:43:35.449Z,10.10
2023-11-17T01:43:56.496Z,9.50
2023-11-17T01:44:17.636Z,10.70
2023-11-17T01:44:38.666Z,11.10
2023-11-17T01:44:59.721Z,9.80
2023-11-17T01:45:20.792Z,9.50
2023-11-17T01:45:41.899Z,8.50
2023-11-17T01:46:03.032Z,9.80
2023-11-17T01:46:24.153Z,11.90
2023-11-17T01:46:45.274Z,10.50
2023-11-17T01:47:06.400Z,11.00
2023-11-17T01:47:27.493Z,11.10
2023-11-17T01:47:48.622Z,10.10
2023-11-17T01:48:09.665Z,9.70
2023-11-17T01:48:30.716Z,10.20
2023-11-17T01:48:51.796Z,11.50
2023-11-17T01:49:12.868Z,9.80
2023-11-17T01:49:33.904Z,10.40
2023-11-17T01:49:54.962Z,9.60
2023-11-17T01:50:16.033Z,9.90
2023-11-17T01:50:37.140Z,10.00
2023-11-17T01:50:58.188Z,9.90
2023-11-17T01:51:19.239Z,10.90
2023-11-17T01:51:40.308Z,9.90
2023-11-17T01:52:01.415Z,10.80
2023-11-17T01:52:22.479Z,9.60
2023-11-17T01:52:43.516Z,9.50
2023-11-17T01:53:04.573Z,10.50
2023-11-17T01:53:25.634Z,10.40
2023-11-17T01:53:46.702Z,9.00
2023-11-17T01:54:07.740Z,7.70
2023-11-17T01:54:28.812Z,8.60
2023-11-17T01:54:49.931Z,10.40
2023-11-17T01:55:11.140Z,9.40
2023-11-17T01:55:32.198Z,9.20
2023-11-17T01:55:53.243Z,8.80
2023-11-17T01:56:14.306Z,9.70
2023-11-17T01:56:35.346Z,10.80
2023-11-17T01:56:56.407Z,9.30
2023-11-17T01:57:17.473Z,10.40
2023-11-17T01:57:38.563Z,10.60
2023-11-17T01:57:59.633Z,11.10
2023-11-17T01:58:20.744Z,10.30
2023-11-17T01:58:41.794Z,9.80
2023-11-17T01:59:02.860Z,8.80
2023-11-17T01:59:23.916Z,8.90
2023-11-17T01:59:44.976Z,8.60
2023-11-17T02:00:06.040Z,7.80
2023-11-17T02:00:27.110Z,9.30
2023-11-17T02:00:48.186Z,8.30
2023-11-17T02:01:09.292Z,9.70
2023-11-17T02:01:30.417Z,10.80
2023-11-17T02:01:51.472Z,9.20
2023-11-17T02:02:12.527Z,9.30
2023-11-17T02:02:33.677Z,8.50
2023-11-17T02:02:54.801Z,9.20
2023-11-17T02:03:15.910Z,8.90
2023-11-17T02:03:37.036Z,8.50
2023-11-17T02:03:58.194Z,8.30
2023-11-17T02:04:19.367Z,8.70
2023-11-17T02:04:40.440Z,9.30
2023-11-17T02:05:01.487Z,8.80
2023-11-17T02:05:22.555Z,7.70
2023-11-17T02:05:43.613Z,8.20
2023-11-17T02:06:04.674Z,10.40
2023-11-17T02:06:25.732Z,8.90
2023-11-17T02:06:46.872Z,8.10
2023-11-17T02:07:07.935Z,9.20
2023-11-17T02:07:29.014Z,8.40
2023-11-17T02:07:50.085Z,9.30
2023-11-17T02:08:11.136Z,8.40
2023-11-17T02:08:32.193Z,8.40
2023-11-17T02:08:53.242Z,9.90
2023-11-17T02:09:14.312Z,8.90
2023-11-17T02:09:35.373Z,8.80
2023-11-17T02:09:56.456Z,7.80
2023-11-17T02:10:17.563Z,8.50
2023-11-17T02:10:38.609Z,9.60
2023-11-17T02:10:59.669Z,9.30
2023-11-17T02:11:20.737Z,8.90
2023-11-17T02:11:41.806Z,8.70
2023-11-17T02:12:02.862Z,8.80
2023-11-17T02:12:23.945Z,9.10
2023-11-17T02:12:45.030Z,8.30
2023-11-17T02:13:06.137Z,8.70
2023-11-17T02:13:27.250Z,8.10
2023-11-17T02:13:48.336Z,9.50
2023-11-17T02:14:09.413Z,8.00
2023-11-17T02:14:30.446Z,8.30
2023-11-17T02:14:51.511Z,9.20
2023-11-17T02:15:12.627Z,10.10
2023-11-17T02:15:34.730Z,9.80
2023-11-17T02:15:56.812Z,10.10
2023-11-17T02:16:17.910Z,9.80
2023-11-17T02:16:39.079Z,8.70
2023-11-17T02:17:00.180Z,10.00
2023-11-17T02:17:21.263Z,10.30
2023-11-17T02:17:42.414Z,9.90
2023-11-17T02:18:03.488Z,10.50
2023-11-17T02:18:24.529Z,9.80
2023-11-17T02:18:45.597Z,9.90
2023-11-17T02:19:06.674Z,10.30
2023-11-17T02:19:27.705Z,10.40
2023-11-17T02:19:48.763Z,10.30
2023-11-17T02:20:09.875Z,10.60
2023-11-17T02:20:30.933Z,10.30
2023-11-17T02:20:51.987Z,9.50
2023-11-17T02:21:13.052Z,10.10
2023-11-17T02:21:34.107Z,9.30
2023-11-17T02:21:55.217Z,8.90
2023-11-17T02:22:16.328Z,10.20
2023-11-17T02:22:37.394Z,10.10
2023-11-17T02:22:58.437Z,9.70
2023-11-17T02:23:19.495Z,9.20
2023-11-17T02:23:40.569Z,8.70
2023-11-17T02:24:01.647Z,9.40
2023-11-17T02:24:22.686Z,9.70
2023-11-17T02:24:43.730Z,9.70
2023-11-17T02:25:04.846Z,10.20
2023-11-17T02:25:26.073Z,9.00
2023-11-17T02:25:47.160Z,10.30
2023-11-17T02:26:08.230Z,10.00
2023-11-17T02:26:29.288Z,8.90
2023-11-17T02:26:50.365Z,9.60
2023-11-17T02:27:11.407Z,9.20
2023-11-17T02:27:32.490Z,9.70
2023-11-17T02:27:53.585Z,10.00
2023-11-17T02:28:14.659Z,9.60
2023-11-17T02:28:35.757Z,8.80
2023-11-17T02:28:56.820Z,7.90
2023-11-17T02:29:17.884Z,9.20
2023-11-17T02:29:39.184Z,9.80
2023-11-17T02:30:00.337Z,9.90
2023-11-17T02:30:21.420Z,10.60
2023-11-17T02:30:42.524Z,8.80
2023-11-17T02:31:03.646Z,9.20
2023-11-17T02:31:24.871Z,10.80
2023-11-17T02:31:45.996Z,11.00
2023-11-17T02:32:07.078Z,8.30
2023-11-17T02:32:28.156Z,8.50
2023-11-17T02:32:49.317Z,9.40
2023-11-17T02:33:10.369Z,10.30
2023-11-17T02:33:31.519Z,10.00
2023-11-17T02:33:52.600Z,9.30
2023-11-17T02:34:13.676Z,9.10
2023-11-17T02:34:34.712Z,8.40
2023-11-17T02:34:55.774Z,10.10
2023-11-17T02:35:16.863Z,10.30
2023-11-17T02:35:37.891Z,9.90
2023-11-17T02:35:58.968Z,8.90
2023-11-17T02:36:20.029Z,9.50
2023-11-17T02:36:41.090Z,10.10
2023-11-17T02:37:02.190Z,9.80
2023-11-17T02:37:23.299Z,9.50
2023-11-17T02:37:44.319Z,10.00
2023-11-17T02:38:05.378Z,10.60
2023-11-17T02:38:26.436Z,9.60
2023-11-17T02:38:47.516Z,10.30
2023-11-17T02:39:08.571Z,9.20
2023-11-17T02:39:29.619Z,10.20
2023-11-17T02:39:50.700Z,10.80
2023-11-17T02:40:11.768Z,10.80
2023-11-17T02:40:32.840Z,10.70
2023-11-17T02:40:53.876Z,10.20
2023-11-17T02:41:14.929Z,9.40
2023-11-17T02:41:35.991Z,8.90
2023-11-17T02:41:57.054Z,8.80
2023-11-17T02:42:18.107Z,10.50
2023-11-17T02:42:39.177Z,9.50
2023-11-17T02:43:00.283Z,11.10
2023-11-17T02:43:21.451Z,11.10
2023-11-17T02:43:42.517Z,10.00
2023-11-17T02:44:03.667Z,10.10
2023-11-17T02:44:24.733Z,9.10
2023-11-17T02:44:45.790Z,10.80
2023-11-17T02:45:06.851Z,8.80
2023-11-17T02:45:27.935Z,9.70
2023-11-17T02:45:49.054Z,9.50
2023-11-17T02:46:10.162Z,9.30
2023-11-17T02:46:31.307Z,10.20
2023-11-17T02:46:52.481Z,8.70
2023-11-17T02:47:13.556Z,8.90
2023-11-17T02:47:34.623Z,10.80
2023-11-17T02:47:56.629Z,10.90
2023-11-17T02:48:24.623Z,11.90
2023-11-17T02:48:44.677Z,10.70
2023-11-17T02:49:05.757Z,10.00
2023-11-17T02:49:26.786Z,10.20
2023-11-17T02:49:47.973Z,10.90
2023-11-17T02:50:08.989Z,9.50
2023-11-17T02:50:30.064Z,11.20
2023-11-17T02:50:51.116Z,9.80
2023-11-17T02:51:12.168Z,9.70
2023-11-17T02:51:33.233Z,9.80
2023-11-17T02:51:54.364Z,9.90
2023-11-17T02:52:15.473Z,9.90
2023-11-17T02:52:36.502Z,10.10
2023-11-17T02:52:57.555Z,10.40
2023-11-17T02:53:18.620Z,11.10
2023-11-17T02:53:39.669Z,11.10
2023-11-17T02:54:00.718Z,9.60
2023-11-17T02:54:21.780Z,10.40
2023-11-17T02:54:42.883Z,11.10
2023-11-17T02:55:03.999Z,11.20
2023-11-17T02:55:25.114Z,9.60
2023-11-17T02:55:46.178Z,9.40
2023-11-17T02:56:07.620Z,8.70
2023-11-17T02:56:28.673Z,9.30
2023-11-17T02:56:49.712Z,10.90
2023-11-17T02:57:10.826Z,9.60
2023-11-17T02:57:31.926Z,8.80
2023-11-17T02:57:52.985Z,11.10
2023-11-17T02:58:14.089Z,11.70
2023-11-17T02:58:35.139Z,11.10
2023-11-17T02:58:56.224Z,12.10
2023-11-17T02:59:17.271Z,10.20
2023-11-17T02:59:38.355Z,10.40
2023-11-17T02:59:59.379Z,11.90
2023-11-17T03:00:20.455Z,10.20
2023-11-17T03:00:41.509Z,10.10
2023-11-17T03:01:02.669Z,9.60
2023-11-17T03:01:23.901Z,9.30
2023-11-17T03:01:45.008Z,9.80
2023-11-17T03:02:06.117Z,10.50
2023-11-17T03:02:27.280Z,8.80
2023-11-17T03:02:48.423Z,8.70
2023-11-17T03:03:09.537Z,10.00
2023-11-17T03:03:30.657Z,9.30
2023-11-17T03:03:51.813Z,9.20
2023-11-17T03:04:12.991Z,11.20
2023-11-17T03:04:34.167Z,10.80
2023-11-17T03:04:55.448Z,8.60
2023-11-17T03:05:16.646Z,9.20
2023-11-17T03:05:37.721Z,10.00
2023-11-17T03:05:58.799Z,10.60
2023-11-17T03:06:19.843Z,10.20
2023-11-17T03:06:40.911Z,10.50
2023-11-17T03:07:02.042Z,8.90
2023-11-17T03:07:23.171Z,9.60
2023-11-17T03:07:44.261Z,11.00
2023-11-17T03:08:05.322Z,11.60
2023-11-17T03:08:26.374Z,9.50
2023-11-17T03:08:47.436Z,10.00
2023-11-17T03:09:08.491Z,10.00
2023-11-17T03:09:29.589Z,9.20
2023-11-17T03:09:50.718Z,8.70
2023-11-17T03:10:11.809Z,8.70
2023-11-17T03:10:32.939Z,9.10
2023-11-17T03:10:54.002Z,9.40
2023-11-17T03:11:15.043Z,10.20
2023-11-17T03:11:36.095Z,9.00
2023-11-17T03:11:57.162Z,9.50
2023-11-17T03:12:18.265Z,8.80
2023-11-17T03:12:39.328Z,8.20
2023-11-17T03:13:00.395Z,8.50
2023-11-17T03:13:21.472Z,8.80
2023-11-17T03:13:42.541Z,10.10
2023-11-17T03:14:03.589Z,10.00
2023-11-17T03:14:24.654Z,8.60
2023-11-17T03:14:45.738Z,9.90
2023-11-17T03:15:06.798Z,9.50
2023-11-17T03:15:27.844Z,9.40
2023-11-17T03:15:48.953Z,9.80
2023-11-17T03:16:10.093Z,9.40
2023-11-17T03:16:31.292Z,8.80
2023-11-17T03:16:52.396Z,10.30
2023-11-17T03:17:13.449Z,10.10
2023-11-17T03:17:34.522Z,9.90
2023-11-17T03:17:55.570Z,9.90
2023-11-17T03:18:16.608Z,10.70
2023-11-17T03:18:37.658Z,9.90
2023-11-17T03:18:58.724Z,10.40
2023-11-17T03:19:19.782Z,10.60
2023-11-17T03:19:40.846Z,10.20
2023-11-17T03:20:01.930Z,10.90
2023-11-17T03:20:22.966Z,11.10
2023-11-17T03:20:44.016Z,10.40
2023-11-17T03:21:05.072Z,9.00
2023-11-17T03:21:26.116Z,9.10
2023-11-17T03:21:47.213Z,10.50
2023-11-17T03:22:08.394Z,9.20
2023-11-17T03:22:29.540Z,9.80
2023-11-17T03:22:50.597Z,8.40
2023-11-17T03:23:11.637Z,8.80
2023-11-17T03:23:32.730Z,9.10
2023-11-17T03:23:53.765Z,9.80
2023-11-17T03:24:14.824Z,10.00
2023-11-17T03:24:35.916Z,8.80
2023-11-17T03:24:56.985Z,8.30
2023-11-17T03:25:18.047Z,9.20
2023-11-17T03:25:39.109Z,9.80
2023-11-17T03:26:00.221Z,11.00
2023-11-17T03:26:21.244Z,10.50
2023-11-17T03:26:42.301Z,10.10
2023-11-17T03:27:03.364Z,9.80
2023-11-17T03:27:24.405Z,8.90
2023-11-17T03:27:45.473Z,7.60
2023-11-17T03:28:06.553Z,8.60
2023-11-17T03:28:27.700Z,7.60
2023-11-17T03:28:48.762Z,8.80
2023-11-17T03:29:09.832Z,8.30
2023-11-17T03:29:30.906Z,9.40
2023-11-17T03:29:52.004Z,10.40
2023-11-17T03:30:13.076Z,8.60
2023-11-17T03:30:34.116Z,8.50
2023-11-17T03:30:55.211Z,8.10
2023-11-17T03:31:16.517Z,8.40
2023-11-17T03:31:37.710Z,9.30
2023-11-17T03:31:59.157Z,8.20
2023-11-17T03:32:20.487Z,8.90
2023-11-17T03:32:41.654Z,8.00
2023-11-17T03:33:02.948Z,9.60
2023-11-17T03:33:24.146Z,9.10
2023-11-17T03:33:45.219Z,7.90
2023-11-17T03:34:06.305Z,7.90
2023-11-17T03:34:27.359Z,8.40
2023-11-17T03:34:48.406Z,8.20
2023-11-17T03:35:09.462Z,7.50
2023-11-17T03:35:30.537Z,7.80
2023-11-17T03:35:51.625Z,9.20
2023-11-17T03:36:12.682Z,7.80
2023-11-17T03:36:33.750Z,6.90
2023-11-17T03:36:54.865Z,8.00
2023-11-17T03:37:15.977Z,8.40
2023-11-17T03:37:37.028Z,8.40
2023-11-17T03:37:58.083Z,9.20
2023-11-17T03:38:19.149Z,9.20
2023-11-17T03:38:40.200Z,9.60
2023-11-17T03:39:01.288Z,8.10
2023-11-17T03:39:22.335Z,7.70
2023-11-17T03:39:43.569Z,8.20
2023-11-17T03:40:04.652Z,6.90
2023-11-17T03:40:25.700Z,7.60
2023-11-17T03:40:46.816Z,8.20
2023-11-17T03:41:07.880Z,10.20
2023-11-17T03:41:28.930Z,10.00
2023-11-17T03:41:50.031Z,9.90
2023-11-17T03:42:11.138Z,8.60
2023-11-17T03:42:32.175Z,8.00
2023-11-17T03:42:53.252Z,8.50
2023-11-17T03:43:14.323Z,8.20
2023-11-17T03:43:35.394Z,7.70
2023-11-17T03:43:56.456Z,8.40
2023-11-17T03:44:17.545Z,7.50
2023-11-17T03:44:38.595Z,9.20
2023-11-17T03:44:59.645Z,7.40
2023-11-17T03:45:20.693Z,9.00
2023-11-17T03:45:41.771Z,9.10
2023-11-17T03:46:02.969Z,7.60
2023-11-17T03:46:24.029Z,9.10
2023-11-17T03:46:45.096Z,8.20
2023-11-17T03:47:06.186Z,9.00
2023-11-17T03:47:27.290Z,8.10
2023-11-17T03:47:48.438Z,7.00
2023-11-17T03:48:09.512Z,8.10
2023-11-17T03:48:30.538Z,7.70
2023-11-17T03:48:51.639Z,8.50
2023-11-17T03:49:12.720Z,7.90
2023-11-17T03:49:33.886Z,8.60
2023-11-17T03:49:54.924Z,9.50
2023-11-17T03:50:15.980Z,8.30
2023-11-17T03:50:37.034Z,7.70
2023-11-17T03:50:58.111Z,7.50
2023-11-17T03:51:19.198Z,8.70
2023-11-17T03:51:40.274Z,8.80
2023-11-17T03:52:01.382Z,7.70
2023-11-17T03:52:22.410Z,7.80
2023-11-17T03:52:43.478Z,7.70
2023-11-17T03:53:04.507Z,7.00
2023-11-17T03:53:25.563Z,8.00
2023-11-17T03:53:46.630Z,7.80
2023-11-17T03:54:07.689Z,7.60
2023-11-17T03:54:28.740Z,8.20
2023-11-17T03:54:49.823Z,8.20
2023-11-17T03:55:10.915Z,8.70
2023-11-17T03:55:32.105Z,8.40
2023-11-17T03:55:53.123Z,8.50
2023-11-17T03:56:14.209Z,8.40
2023-11-17T03:56:35.234Z,7.70
2023-11-17T03:56:56.290Z,9.70
2023-11-17T03:57:17.341Z,9.80
2023-11-17T03:57:38.402Z,7.60
2023-11-17T03:57:59.531Z,7.80
2023-11-17T03:58:20.614Z,8.30
2023-11-17T03:58:41.693Z,8.00
2023-11-17T03:59:02.786Z,9.00
2023-11-17T03:59:23.911Z,8.30
2023-11-17T03:59:44.966Z,8.40
2023-11-17T04:00:06.066Z,8.00
2023-11-17T04:00:27.109Z,8.50
2023-11-17T04:00:48.211Z,9.30
2023-11-17T04:01:09.453Z,8.40
2023-11-17T04:01:30.686Z,6.90
2023-11-17T04:01:51.861Z,6.80
2023-11-17T04:02:12.935Z,7.80
2023-11-17T04:02:34.050Z,8.40
2023-11-17T04:02:55.133Z,7.90
2023-11-17T04:03:16.238Z,8.40
2023-11-17T04:03:37.329Z,8.70
2023-11-17T04:03:58.441Z,7.50
2023-11-17T04:04:19.829Z,7.90
2023-11-17T04:04:40.921Z,8.10
2023-11-17T04:05:01.978Z,7.20
2023-11-17T04:05:23.028Z,6.80
2023-11-17T04:05:44.089Z,7.50
2023-11-17T04:06:05.135Z,7.80
2023-11-17T04:06:26.194Z,7.70
2023-11-17T04:06:47.242Z,7.40
2023-11-17T04:07:08.319Z,6.90
2023-11-17T04:07:29.377Z,6.10
2023-11-17T04:07:50.423Z,8.60
2023-11-17T04:08:11.476Z,7.30
2023-11-17T04:08:32.526Z,7.50
2023-11-17T04:08:53.593Z,6.10
2023-11-17T04:09:14.637Z,6.70
2023-11-17T04:09:35.695Z,7.10
2023-11-17T04:09:56.796Z,7.70
2023-11-17T04:10:17.894Z,7.50
2023-11-17T04:10:38.916Z,7.50
2023-11-17T04:10:59.969Z,7.80
2023-11-17T04:11:21.046Z,7.80
2023-11-17T04:11:42.078Z,8.00
2023-11-17T04:12:03.136Z,8.70
2023-11-17T04:12:24.192Z,7.70
2023-11-17T04:12:45.257Z,7.60
2023-11-17T04:13:06.304Z,6.30
2023-11-17T04:13:27.383Z,8.00
2023-11-17T04:13:48.448Z,6.90
2023-11-17T04:14:09.496Z,7.10
2023-11-17T04:14:30.568Z,7.10
2023-11-17T04:14:51.686Z,7.70
2023-11-17T04:15:14.748Z,8.60
2023-11-17T04:15:35.906Z,6.60
2023-11-17T04:15:57.056Z,7.40
2023-11-17T04:16:18.207Z,8.30
2023-11-17T04:16:39.298Z,7.50
2023-11-17T04:17:00.453Z,6.90
2023-11-17T04:17:21.517Z,8.50
2023-11-17T04:17:42.635Z,8.10
2023-11-17T04:18:03.703Z,7.00
2023-11-17T04:18:24.747Z,6.80
2023-11-17T04:18:45.812Z,6.60
2023-11-17T04:19:06.890Z,7.90
2023-11-17T04:19:27.979Z,7.00
2023-11-17T04:19:49.015Z,8.10
2023-11-17T04:20:10.097Z,9.80
2023-11-17T04:20:31.149Z,9.20
2023-11-17T04:20:52.191Z,6.60
2023-11-17T04:21:13.270Z,7.00
2023-11-17T04:21:34.309Z,7.20
2023-11-17T04:21:55.428Z,7.00
2023-11-17T04:22:16.497Z,7.40
2023-11-17T04:22:37.640Z,6.80
2023-11-17T04:22:58.755Z,7.90
2023-11-17T04:23:19.820Z,8.30
2023-11-17T04:23:40.886Z,7.90
2023-11-17T04:24:01.999Z,6.60
2023-11-17T04:24:23.049Z,5.90
2023-11-17T04:24:44.114Z,7.40
2023-11-17T04:25:05.246Z,6.80
2023-11-17T04:25:26.350Z,7.70
2023-11-17T04:25:47.397Z,7.90
2023-11-17T04:26:08.455Z,7.00
2023-11-17T04:26:29.520Z,6.70
2023-11-17T04:26:50.565Z,5.80
2023-11-17T04:27:11.608Z,6.00
2023-11-17T04:27:32.665Z,6.10
2023-11-17T04:27:53.862Z,7.20
2023-11-17T04:28:15.005Z,7.90
2023-11-17T04:28:36.048Z,7.00
2023-11-17T04:28:57.138Z,6.00
2023-11-17T04:29:18.209Z,6.30
2023-11-17T04:29:39.249Z,6.50
2023-11-17T04:30:00.328Z,5.80
2023-11-17T04:30:21.392Z,6.90
2023-11-17T04:30:42.431Z,8.00
2023-11-17T04:31:03.522Z,7.50
2023-11-17T04:31:24.565Z,7.10
2023-11-17T04:31:45.660Z,7.00
2023-11-17T04:32:06.701Z,6.70
2023-11-17T04:32:27.825Z,7.50
2023-11-17T04:32:48.979Z,6.50
2023-11-17T04:33:10.140Z,7.90
2023-11-17T04:33:31.282Z,7.60
2023-11-17T04:33:52.415Z,6.80
2023-11-17T04:34:13.594Z,6.60
2023-11-17T04:34:34.691Z,7.80
2023-11-17T04:34:55.765Z,7.40
2023-11-17T04:35:16.852Z,6.10
2023-11-17T04:35:37.886Z,5.80
2023-11-17T04:35:58.933Z,6.30
2023-11-17T04:36:19.987Z,6.70